British Emerald — MIBR — position and weather

sailwx.info

Track history (hours):
 
Tides and Currents Weather Stations Pressure Air Temp Water Temp Dewpoint Dewpoint Depression Visibility Wind Speed Wind Dir Waves Ship Positions

British Emerald

Last reported at 2017-Jul-19 03:47 UTC. Time now 2017-Jul-21 19:01 UTC.
Position N 35°53' W 006°26'.

Type: Ship. MMSI: 235050369.

Date/timePositionNaut miles runAvg speedWind from/ knotsBaromVisibWave heightAir tempDewpointWater temp
2017-Jul-19 03:47N 35°53' W 006°26'515.1
2017-Jul-19 03:28N 35°53' W 006°32'1614.5
2017-Jul-19 02:24N 35°42' W 006°46'2314.8
2017-Jul-19 00:50N 35°27' W 007°07'514.7
2017-Jul-19 00:29N 35°23' W 007°11'2414.2
2017-Jul-18 22:50N 35°07' W 007°32'513.9
2017-Jul-18 22:29N 35°04' W 007°37'1914.1
2017-Jul-18 21:06N 34°50' W 007°54'113.9
2017-Jul-18 21:00N 34°50' W 007°55'1714.1
2017-Jul-18 19:49N 34°38' W 008°10'414.0
2017-Jul-18 19:30N 34°35' W 008°14'4893.4
2017-Jul-18 19:00N 34°00' W 008°54'39358.1 340 / 191013.3 5.4 23.019.923.3
2017-Jul-18 18:53N 34°29' W 008°22'514.5
2017-Jul-18 18:30N 34°25' W 008°27'1114.6
2017-Jul-18 17:47N 34°17' W 008°36'414.6
2017-Jul-18 17:30N 34°15' W 008°39'1014.6
2017-Jul-18 16:50N 34°08' W 008°48'514.8
2017-Jul-18 16:30N 34°05' W 008°52'1212.7
2017-Jul-18 15:35N 33°55' W 009°00'513.3
2017-Jul-18 15:14N 33°57' W 008°55'314.6
2017-Jul-18 15:00N 33°59' W 008°52'5711.5
2017-Jul-18 10:03N 33°23' W 009°46'218.8
2017-Jul-18 09:56N 33°22' W 009°48'11318.9
2017-Jul-18 03:57N 32°04' W 011°25'919.2
2017-Jul-18 03:29N 31°58' W 011°33'919.2
2017-Jul-18 03:01N 31°52' W 011°41'1019.3
2017-Jul-18 02:28N 31°44' W 011°50'919.3
2017-Jul-18 02:00N 31°38' W 011°57'919.0
2017-Jul-18 01:31N 31°31' W 012°05'1019.3
2017-Jul-18 00:59N 31°24' W 012°14'1019.1
2017-Jul-18 00:29N 31°18' W 012°22'919.0
2017-Jul-18 00:00N 31°12' W 012°30'1119.2
2017-Jul-17 23:25N 31°04' W 012°39'819.0
2017-Jul-17 23:00N 30°59' W 012°46'6703.6
2017-Jul-17 23:00N 30°54' W 012°42'1021.1 010 / 171014.9 5.4 22.0 22.0
2017-Jul-17 22:30N 30°52' W 012°54'919.0
2017-Jul-17 22:00N 30°45' W 013°02'918.7
2017-Jul-17 21:31N 30°39' W 013°10'918.9
2017-Jul-17 21:01N 30°33' W 013°18'918.7
2017-Jul-17 20:30N 30°26' W 013°25'918.9
2017-Jul-17 20:00N 30°20' W 013°34'1019.1
2017-Jul-17 19:30N 30°13' W 013°42'1019.2
2017-Jul-17 19:00N 30°07' W 013°50'7460.5
2017-Jul-17 19:00N 30°00' W 013°48'917.2 020 / 141013.4 5.4 22.020.521.5
2017-Jul-17 18:29N 29°60' W 013°58'919.3
2017-Jul-17 18:00N 29°53' W 014°06'919.1
2017-Jul-17 17:30N 29°47' W 014°14'1019.2
2017-Jul-17 16:59N 29°40' W 014°22'919.4
2017-Jul-17 16:30N 29°33' W 014°30'1019.3
2017-Jul-17 16:00N 29°27' W 014°38'1019.4
2017-Jul-17 15:30N 29°20' W 014°46'1019.3
2017-Jul-17 15:01N 29°14' W 014°54'1019.4
2017-Jul-17 14:31N 29°07' W 015°02'919.0
2017-Jul-17 14:01N 29°01' W 015°10'816.7
2017-Jul-17 13:31N 28°55' W 015°17'713.8
2017-Jul-17 13:01N 28°50' W 015°23'713.7
2017-Jul-17 12:30N 28°45' W 015°28'713.7
2017-Jul-17 12:00N 28°40' W 015°34'713.9
2017-Jul-17 11:29N 28°36' W 015°40'613.7
2017-Jul-17 11:00N 28°31' W 015°45'713.4
2017-Jul-17 10:29N 28°26' W 015°50'613.0
2017-Jul-17 10:00N 28°21' W 015°55'612.1
2017-Jul-17 09:31N 28°19' W 016°02'815.3
2017-Jul-17 09:01N 28°25' W 016°07'611.1
2017-Jul-17 08:31N 28°29' W 016°11'0 0.8
2017-Jul-17 07:58N 28°29' W 016°11'0 0.1
2017-Jul-17 07:28N 28°29' W 016°11'0 0.1
2017-Jul-17 06:58N 28°29' W 016°11'0 0.1
2017-Jul-17 06:28N 28°29' W 016°11'0 0.2
2017-Jul-17 05:55N 28°29' W 016°11'0 0.0
2017-Jul-17 05:28N 28°29' W 016°11'0 0.0
2017-Jul-17 04:55N 28°29' W 016°11'0 0.0
2017-Jul-17 04:28N 28°29' W 016°11'0 0.0
2017-Jul-17 03:58N 28°29' W 016°11'0 0.0
2017-Jul-17 03:28N 28°29' W 016°11'0 0.0
2017-Jul-17 02:49N 28°29' W 016°11'0 0.0
2017-Jul-17 02:19N 28°29' W 016°11'0 0.0
2017-Jul-17 01:58N 28°29' W 016°11'0 0.1
2017-Jul-17 01:28N 28°29' W 016°11'0 0.1
2017-Jul-17 00:49N 28°29' W 016°11'0 0.1
2017-Jul-17 00:01N 28°29' W 016°11'0 0.1
2017-Jul-16 23:52N 28°29' W 016°11'0 0.1
2017-Jul-16 23:19N 28°29' W 016°11'0 0.1
2017-Jul-16 22:49N 28°29' W 016°11'0 0.1
2017-Jul-16 21:04N 28°29' W 016°11'0 0.1
2017-Jul-16 20:52N 28°29' W 016°11'0 0.0
2017-Jul-16 20:25N 28°29' W 016°11'0 0.0
2017-Jul-16 19:55N 28°29' W 016°11'0 0.0
2017-Jul-16 17:52N 28°29' W 016°11'0 0.1
2017-Jul-16 17:10N 28°29' W 016°11'0 0.1
2017-Jul-16 16:58N 28°29' W 016°11'0 0.1
2017-Jul-16 16:28N 28°29' W 016°11'0 0.0
2017-Jul-16 15:58N 28°29' W 016°11'0 0.1
2017-Jul-16 15:28N 28°29' W 016°11'0 0.0
2017-Jul-16 14:55N 28°29' W 016°11'0 0.0
2017-Jul-16 14:16N 28°29' W 016°11'0 0.0
2017-Jul-16 13:40N 28°29' W 016°11'0 0.0
2017-Jul-16 13:28N 28°29' W 016°11'0 0.0
2017-Jul-16 12:58N 28°29' W 016°11'0 0.0
2017-Jul-16 12:28N 28°29' W 016°11'0 0.0
2017-Jul-16 09:28N 28°29' W 016°11'0 0.0
2017-Jul-16 08:52N 28°29' W 016°11'0 0.0
2017-Jul-16 08:19N 28°29' W 016°11'0 0.1
2017-Jul-16 07:52N 28°29' W 016°11'0 0.3
2017-Jul-16 07:19N 28°29' W 016°11'0 0.2
2017-Jul-16 06:52N 28°29' W 016°11'0 0.1
2017-Jul-16 06:25N 28°29' W 016°11'0 0.2
2017-Jul-16 05:52N 28°29' W 016°11'0 0.2
2017-Jul-16 05:22N 28°29' W 016°11'0 0.0
2017-Jul-16 04:52N 28°29' W 016°11'0 0.0
2017-Jul-16 01:10N 28°29' W 016°11'0 0.0
2017-Jul-15 23:28N 28°29' W 016°11'0 0.1
2017-Jul-15 22:58N 28°29' W 016°11'0 0.0
2017-Jul-15 22:28N 28°29' W 016°11'0 0.0
2017-Jul-15 21:58N 28°29' W 016°11'0 0.1
2017-Jul-15 21:28N 28°29' W 016°11'0 0.0
2017-Jul-15 20:55N 28°29' W 016°11'0 0.0
2017-Jul-15 13:55N 28°29' W 016°11'0 0.0
2017-Jul-15 10:07N 28°29' W 016°11'0 0.1
2017-Jul-15 08:01N 28°29' W 016°11'0 0.1
2017-Jul-15 07:58N 28°29' W 016°11'0 0.1
2017-Jul-15 07:19N 28°29' W 016°11'0 0.1
2017-Jul-15 04:19N 28°29' W 016°11'0 0.0
2017-Jul-14 11:16N 28°29' W 016°11'0 0.1
2017-Jul-14 10:52N 28°29' W 016°11'2 0.5
2017-Jul-14 07:05N 28°30' W 016°09'0 4.5
2017-Jul-14 07:00N 28°30' W 016°09'1 1.9
2017-Jul-14 06:25N 28°31' W 016°09'0 0.0
2017-Jul-13 21:53N 28°31' W 016°09'0 0.0
2017-Jul-13 21:23N 28°31' W 016°09'0 0.0
2017-Jul-13 20:53N 28°31' W 016°09'0 0.1
2017-Jul-13 17:29N 28°31' W 016°09'0 0.0
2017-Jul-13 16:14N 28°31' W 016°09'0 0.0
2017-Jul-13 15:56N 28°31' W 016°09'0 0.1
2017-Jul-13 15:29N 28°31' W 016°09'0 0.0
2017-Jul-13 14:56N 28°31' W 016°09'0 0.0
2017-Jul-13 14:29N 28°31' W 016°09'0 0.0
2017-Jul-13 11:29N 28°31' W 016°09'0 0.1
2017-Jul-13 10:59N 28°31' W 016°09'0 0.0
2017-Jul-13 10:17N 28°31' W 016°09'0 0.0
2017-Jul-13 02:44N 28°31' W 016°09'0 0.1
2017-Jul-13 02:26N 28°31' W 016°09'0 0.0
2017-Jul-11 20:25N 28°31' W 016°09'0 0.1
2017-Jul-11 19:58N 28°31' W 016°09'0 0.0
2017-Jul-11 12:34N 28°31' W 016°09'0 0.3
2017-Jul-11 12:16N 28°31' W 016°09'0 0.1
2017-Jul-11 11:34N 28°31' W 016°09'0 0.0
2017-Jul-11 05:37N 28°31' W 016°09'0 0.1
2017-Jul-11 05:13N 28°31' W 016°09'0 0.0
2017-Jul-10 09:31N 28°31' W 016°09'0 0.0
2017-Jul-10 09:13N 28°31' W 016°09'0 0.0
2017-Jul-10 08:43N 28°31' W 016°09'0 0.0
2017-Jul-10 08:13N 28°31' W 016°09'0 0.0
2017-Jul-10 07:46N 28°31' W 016°09'0 0.0
2017-Jul-10 05:34N 28°31' W 016°09'0 0.1
2017-Jul-10 05:16N 28°31' W 016°09'0 0.0
2017-Jul-10 01:40N 28°31' W 016°09'0 0.0
2017-Jul-10 01:22N 28°31' W 016°09'0 0.0
2017-Jul-10 00:52N 28°31' W 016°09'0 0.0
2017-Jul-09 11:25N 28°31' W 016°09'  
Track history (hours):
 
Tides and Currents Weather Stations Pressure Air Temp Water Temp Dewpoint Dewpoint Depression Visibility Wind Speed Wind Dir Waves Ship Positions

British Emerald

Last reported at 2017-Jul-19 03:47 UTC. Time now 2017-Jul-21 19:01 UTC.
Position N 35°53' W 006°26'.

Type: Ship. MMSI: 235050369.

Date/timePositionNaut miles runAvg speedWind from/ knotsBaromVisibWave heightAir tempDewpointWater temp
2017-Jul-19 03:47N 35°53' W 006°26'515.1
2017-Jul-19 03:28N 35°53' W 006°32'1614.5
2017-Jul-19 02:24N 35°42' W 006°46'2314.8
2017-Jul-19 00:50N 35°27' W 007°07'514.7
2017-Jul-19 00:29N 35°23' W 007°11'2414.2
2017-Jul-18 22:50N 35°07' W 007°32'513.9
2017-Jul-18 22:29N 35°04' W 007°37'1914.1
2017-Jul-18 21:06N 34°50' W 007°54'113.9
2017-Jul-18 21:00N 34°50' W 007°55'1714.1
2017-Jul-18 19:49N 34°38' W 008°10'414.0
2017-Jul-18 19:30N 34°35' W 008°14'4893.4
2017-Jul-18 19:00N 34°00' W 008°54'39358.1 340 / 191013.3 5.4 23.019.923.3
2017-Jul-18 18:53N 34°29' W 008°22'514.5
2017-Jul-18 18:30N 34°25' W 008°27'1114.6
2017-Jul-18 17:47N 34°17' W 008°36'414.6
2017-Jul-18 17:30N 34°15' W 008°39'1014.6
2017-Jul-18 16:50N 34°08' W 008°48'514.8
2017-Jul-18 16:30N 34°05' W 008°52'1212.7
2017-Jul-18 15:35N 33°55' W 009°00'513.3
2017-Jul-18 15:14N 33°57' W 008°55'314.6
2017-Jul-18 15:00N 33°59' W 008°52'5711.5
2017-Jul-18 10:03N 33°23' W 009°46'218.8
2017-Jul-18 09:56N 33°22' W 009°48'11318.9
2017-Jul-18 03:57N 32°04' W 011°25'919.2
2017-Jul-18 03:29N 31°58' W 011°33'919.2
2017-Jul-18 03:01N 31°52' W 011°41'1019.3
2017-Jul-18 02:28N 31°44' W 011°50'919.3
2017-Jul-18 02:00N 31°38' W 011°57'919.0
2017-Jul-18 01:31N 31°31' W 012°05'1019.3
2017-Jul-18 00:59N 31°24' W 012°14'1019.1
2017-Jul-18 00:29N 31°18' W 012°22'919.0
2017-Jul-18 00:00N 31°12' W 012°30'1119.2
2017-Jul-17 23:25N 31°04' W 012°39'819.0
2017-Jul-17 23:00N 30°59' W 012°46'6703.6
2017-Jul-17 23:00N 30°54' W 012°42'1021.1 010 / 171014.9 5.4 22.0 22.0
2017-Jul-17 22:30N 30°52' W 012°54'919.0
2017-Jul-17 22:00N 30°45' W 013°02'918.7
2017-Jul-17 21:31N 30°39' W 013°10'918.9
2017-Jul-17 21:01N 30°33' W 013°18'918.7
2017-Jul-17 20:30N 30°26' W 013°25'918.9
2017-Jul-17 20:00N 30°20' W 013°34'1019.1
2017-Jul-17 19:30N 30°13' W 013°42'1019.2
2017-Jul-17 19:00N 30°07' W 013°50'7460.5
2017-Jul-17 19:00N 30°00' W 013°48'917.2 020 / 141013.4 5.4 22.020.521.5
2017-Jul-17 18:29N 29°60' W 013°58'919.3
2017-Jul-17 18:00N 29°53' W 014°06'919.1
2017-Jul-17 17:30N 29°47' W 014°14'1019.2
2017-Jul-17 16:59N 29°40' W 014°22'919.4
2017-Jul-17 16:30N 29°33' W 014°30'1019.3
2017-Jul-17 16:00N 29°27' W 014°38'1019.4
2017-Jul-17 15:30N 29°20' W 014°46'1019.3
2017-Jul-17 15:01N 29°14' W 014°54'1019.4
2017-Jul-17 14:31N 29°07' W 015°02'919.0
2017-Jul-17 14:01N 29°01' W 015°10'816.7
2017-Jul-17 13:31N 28°55' W 015°17'713.8
2017-Jul-17 13:01N 28°50' W 015°23'713.7
2017-Jul-17 12:30N 28°45' W 015°28'713.7
2017-Jul-17 12:00N 28°40' W 015°34'713.9
2017-Jul-17 11:29N 28°36' W 015°40'613.7
2017-Jul-17 11:00N 28°31' W 015°45'713.4
2017-Jul-17 10:29N 28°26' W 015°50'613.0
2017-Jul-17 10:00N 28°21' W 015°55'612.1
2017-Jul-17 09:31N 28°19' W 016°02'815.3
2017-Jul-17 09:01N 28°25' W 016°07'611.1
2017-Jul-17 08:31N 28°29' W 016°11'0 0.8
2017-Jul-17 07:58N 28°29' W 016°11'0 0.1
2017-Jul-17 07:28N 28°29' W 016°11'0 0.1
2017-Jul-17 06:58N 28°29' W 016°11'0 0.1
2017-Jul-17 06:28N 28°29' W 016°11'0 0.2
2017-Jul-17 05:55N 28°29' W 016°11'0 0.0
2017-Jul-17 05:28N 28°29' W 016°11'0 0.0
2017-Jul-17 04:55N 28°29' W 016°11'0 0.0
2017-Jul-17 04:28N 28°29' W 016°11'0 0.0
2017-Jul-17 03:58N 28°29' W 016°11'0 0.0
2017-Jul-17 03:28N 28°29' W 016°11'0 0.0
2017-Jul-17 02:49N 28°29' W 016°11'0 0.0
2017-Jul-17 02:19N 28°29' W 016°11'0 0.0
2017-Jul-17 01:58N 28°29' W 016°11'0 0.1
2017-Jul-17 01:28N 28°29' W 016°11'0 0.1
2017-Jul-17 00:49N 28°29' W 016°11'0 0.1
2017-Jul-17 00:01N 28°29' W 016°11'0 0.1
2017-Jul-16 23:52N 28°29' W 016°11'0 0.1
2017-Jul-16 23:19N 28°29' W 016°11'0 0.1
2017-Jul-16 22:49N 28°29' W 016°11'0 0.1
2017-Jul-16 21:04N 28°29' W 016°11'0 0.1
2017-Jul-16 20:52N 28°29' W 016°11'0 0.0
2017-Jul-16 20:25N 28°29' W 016°11'0 0.0
2017-Jul-16 19:55N 28°29' W 016°11'0 0.0
2017-Jul-16 17:52N 28°29' W 016°11'0 0.1
2017-Jul-16 17:10N 28°29' W 016°11'0 0.1
2017-Jul-16 16:58N 28°29' W 016°11'0 0.1
2017-Jul-16 16:28N 28°29' W 016°11'0 0.0
2017-Jul-16 15:58N 28°29' W 016°11'0 0.1
2017-Jul-16 15:28N 28°29' W 016°11'0 0.0
2017-Jul-16 14:55N 28°29' W 016°11'0 0.0
2017-Jul-16 14:16N 28°29' W 016°11'0 0.0
2017-Jul-16 13:40N 28°29' W 016°11'0 0.0
2017-Jul-16 13:28N 28°29' W 016°11'0 0.0
2017-Jul-16 12:58N 28°29' W 016°11'0 0.0
2017-Jul-16 12:28N 28°29' W 016°11'0 0.0
2017-Jul-16 09:28N 28°29' W 016°11'0 0.0
2017-Jul-16 08:52N 28°29' W 016°11'0 0.0
2017-Jul-16 08:19N 28°29' W 016°11'0 0.1
2017-Jul-16 07:52N 28°29' W 016°11'0 0.3
2017-Jul-16 07:19N 28°29' W 016°11'0 0.2
2017-Jul-16 06:52N 28°29' W 016°11'0 0.1
2017-Jul-16 06:25N 28°29' W 016°11'0 0.2
2017-Jul-16 05:52N 28°29' W 016°11'0 0.2
2017-Jul-16 05:22N 28°29' W 016°11'0 0.0
2017-Jul-16 04:52N 28°29' W 016°11'0 0.0
2017-Jul-16 01:10N 28°29' W 016°11'0 0.0
2017-Jul-15 23:28N 28°29' W 016°11'0 0.1
2017-Jul-15 22:58N 28°29' W 016°11'0 0.0
2017-Jul-15 22:28N 28°29' W 016°11'0 0.0
2017-Jul-15 21:58N 28°29' W 016°11'0 0.1
2017-Jul-15 21:28N 28°29' W 016°11'0 0.0
2017-Jul-15 20:55N 28°29' W 016°11'0 0.0
2017-Jul-15 13:55N 28°29' W 016°11'0 0.0
2017-Jul-15 10:07N 28°29' W 016°11'0 0.1
2017-Jul-15 08:01N 28°29' W 016°11'0 0.1
2017-Jul-15 07:58N 28°29' W 016°11'0 0.1
2017-Jul-15 07:19N 28°29' W 016°11'0 0.1
2017-Jul-15 04:19N 28°29' W 016°11'0 0.0
2017-Jul-14 11:16N 28°29' W 016°11'0 0.1
2017-Jul-14 10:52N 28°29' W 016°11'2 0.5
2017-Jul-14 07:05N 28°30' W 016°09'0 4.5
2017-Jul-14 07:00N 28°30' W 016°09'1 1.9
2017-Jul-14 06:25N 28°31' W 016°09'0 0.0
2017-Jul-13 21:53N 28°31' W 016°09'0 0.0
2017-Jul-13 21:23N 28°31' W 016°09'0 0.0
2017-Jul-13 20:53N 28°31' W 016°09'0 0.1
2017-Jul-13 17:29N 28°31' W 016°09'0 0.0
2017-Jul-13 16:14N 28°31' W 016°09'0 0.0
2017-Jul-13 15:56N 28°31' W 016°09'0 0.1
2017-Jul-13 15:29N 28°31' W 016°09'0 0.0
2017-Jul-13 14:56N 28°31' W 016°09'0 0.0
2017-Jul-13 14:29N 28°31' W 016°09'0 0.0
2017-Jul-13 11:29N 28°31' W 016°09'0 0.1
2017-Jul-13 10:59N 28°31' W 016°09'0 0.0
2017-Jul-13 10:17N 28°31' W 016°09'0 0.0
2017-Jul-13 02:44N 28°31' W 016°09'0 0.1
2017-Jul-13 02:26N 28°31' W 016°09'0 0.0
2017-Jul-11 20:25N 28°31' W 016°09'0 0.1
2017-Jul-11 19:58N 28°31' W 016°09'0 0.0
2017-Jul-11 12:34N 28°31' W 016°09'0 0.3
2017-Jul-11 12:16N 28°31' W 016°09'0 0.1
2017-Jul-11 11:34N 28°31' W 016°09'0 0.0
2017-Jul-11 05:37N 28°31' W 016°09'0 0.1
2017-Jul-11 05:13N 28°31' W 016°09'0 0.0
2017-Jul-10 09:31N 28°31' W 016°09'0 0.0
2017-Jul-10 09:13N 28°31' W 016°09'0 0.0
2017-Jul-10 08:43N 28°31' W 016°09'0 0.0
2017-Jul-10 08:13N 28°31' W 016°09'0 0.0
2017-Jul-10 07:46N 28°31' W 016°09'0 0.0
2017-Jul-10 05:34N 28°31' W 016°09'0 0.1
2017-Jul-10 05:16N 28°31' W 016°09'0 0.0
2017-Jul-10 01:40N 28°31' W 016°09'0 0.0
2017-Jul-10 01:22N 28°31' W 016°09'0 0.0
2017-Jul-10 00:52N 28°31' W 016°09'0 0.0
2017-Jul-09 11:25N 28°31' W 016°09'  

Dump ship's entire track history